Briefing drone pour Marsac-sur-l'isle

Rechercher une autre localisation

Conditions de vol :


Nous sommes le : Samedi 19 juin 2021
Il est 03:48 UTC (05:48 LT)

Lever de soleil : 03:43 UTC (05:43 LT)
Coucher de soleil : 20:14 UTC (22:14 LT)

Météo

L'essentiel des conditions de vol

VIGILANCE MÉTÉO FRANCE - Dordogne (24)
Vigilance Jaune : Orages
CARTE TEMSI
CARTES DES FRONTS
METAR de LFBX
LFBX 190330Z AUTO VRB02KT 9999 FEW012 BKN064 BKN130 19/16 Q1014

Date d'émission: 19/06/2021
Heure d'émission: 03:30 UTC
Vent: Variable 2 KT (4 km/h)
Visibilité horizontale: > 10 km
Plafond :
- Peu de nuages à 1200ft (366m)
- Nuages morcelés à 6400ft (1951m)
- Nuages morcelés à 13000ft (3962m)
Température: 19 °C
Point de rosée: 16 °C
Humidité: 83%
Pression (QNH): 1014 hPa
Prévision 24h pour Perigueux (3 km)
Vent : 143° pour 3 KT (10 km/h)
Temperature Maxi: 17 °C
Temperature Min: 17 °C
Humidité : 98%
Condition : Légère pluie



Warning: count(): Parameter must be an array or an object that implements Countable in /homepages/6/d509196549/htdocs/droneoxygene/briefing.php on line 743
WEBCAM POUR MARSAC-SUR-L'ISLE

Réglementation

Voler en sécurité

CARTES AERONAUTIQUE 1/500.000
CARTES VAC (LFBX)
SUP AIP




Chargement des AIP...
NOTAM (MARSAC-SUR-L'ISLE + Terrain à proximité / FIR )




Chargement des NOTAMS...
CONTACT PREFECTURE 24


Avertissement : Les données mises à disposition sont indicatives. Oxygène Drone ne pourra être tenu responsable de dégâts causés aux biens et aux personnes.